TimeCDT,TemperatureF,Dew PointF,Humidity,Sea Level PressureIn,VisibilityMPH,Wind Direction,Wind SpeedMPH,Gust SpeedMPH,PrecipitationIn,Events,Conditions,WindDirDegrees,DateUTC
12:15 AM,43.7,25.5,49,30.09,10.0,SSW,4.6,-,N/A,,Overcast,210,2012-10-11 05:15:00
12:35 AM,43.9,26.1,50,30.08,10.0,South,4.6,-,N/A,,Mostly Cloudy,190,2012-10-11 05:35:00
12:55 AM,43.7,25.7,49,30.08,10.0,South,3.5,-,N/A,,Scattered Clouds,190,2012-10-11 05:55:00
1:15 AM,43.5,25.5,49,30.07,10.0,South,5.8,-,N/A,,Clear,190,2012-10-11 06:15:00
1:35 AM,43.0,26.1,51,30.06,10.0,South,6.9,-,N/A,,Scattered Clouds,190,2012-10-11 06:35:00
1:55 AM,43.2,25.7,50,30.05,10.0,South,5.8,-,N/A,,Overcast,190,2012-10-11 06:55:00
2:15 AM,42.4,25.2,50,30.05,10.0,SSW,9.2,-,N/A,,Scattered Clouds,200,2012-10-11 07:15:00
2:55 AM,42.1,25.2,51,30.03,10.0,SSW,10.4,-,N/A,,Clear,210,2012-10-11 07:55:00
3:15 AM,41.9,25.3,52,30.02,10.0,SSW,11.5,17.3,N/A,,Clear,210,2012-10-11 08:15:00
3:35 AM,41.5,25.2,52,30.02,10.0,SSW,9.2,17.3,N/A,,Clear,210,2012-10-11 08:35:00
3:55 AM,42.8,24.8,49,30.00,10.0,SSW,15.0,18.4,N/A,,Clear,210,2012-10-11 08:55:00
4:15 AM,43.7,24.8,47,30.00,10.0,SW,13.8,19.6,N/A,,Clear,220,2012-10-11 09:15:00
4:35 AM,44.6,25.3,47,29.99,10.0,SW,13.8,23.0,N/A,,Scattered Clouds,220,2012-10-11 09:35:00
4:55 AM,45.5,25.5,46,30.00,10.0,SW,15.0,-,N/A,,Scattered Clouds,220,2012-10-11 09:55:00
5:15 AM,45.7,26.1,46,30.00,10.0,SW,15.0,19.6,N/A,,Clear,230,2012-10-11 10:15:00
5:35 AM,46.4,26.4,46,29.99,10.0,SW,16.1,24.2,N/A,,Clear,230,2012-10-11 10:35:00
5:55 AM,46.4,26.6,46,29.99,10.0,SW,15.0,21.9,N/A,,Clear,230,2012-10-11 10:55:00
6:15 AM,46.6,26.8,46,29.98,10.0,SW,16.1,27.6,N/A,,Clear,230,2012-10-11 11:15:00
6:35 AM,46.4,27.1,47,29.98,10.0,SW,16.1,23.0,N/A,,Clear,230,2012-10-11 11:35:00
6:55 AM,46.8,27.5,47,29.99,10.0,SW,13.8,23.0,N/A,,Scattered Clouds,230,2012-10-11 11:55:00
7:15 AM,46.9,27.9,48,29.99,10.0,WSW,15.0,20.7,N/A,,Mostly Cloudy,240,2012-10-11 12:15:00
7:35 AM,47.3,28.4,48,29.99,10.0,SW,17.3,24.2,N/A,,Mostly Cloudy,230,2012-10-11 12:35:00
7:55 AM,47.7,28.9,48,29.99,10.0,SW,19.6,23.0,N/A,,Overcast,230,2012-10-11 12:55:00
8:15 AM,48.6,29.1,47,29.99,10.0,SW,13.8,21.9,N/A,,Overcast,230,2012-10-11 13:15:00
8:35 AM,49.5,29.5,46,30.00,10.0,WSW,16.1,23.0,N/A,,Mostly Cloudy,240,2012-10-11 13:35:00
8:55 AM,50.2,29.7,45,30.00,10.0,WSW,18.4,25.3,N/A,,Scattered Clouds,240,2012-10-11 13:55:00
9:15 AM,52.0,29.8,43,30.00,10.0,WSW,18.4,27.6,N/A,,Scattered Clouds,240,2012-10-11 14:15:00
9:35 AM,54.5,29.7,39,30.00,10.0,WSW,19.6,31.1,N/A,,Clear,240,2012-10-11 14:35:00
9:55 AM,54.0,29.8,40,30.00,10.0,WSW,16.1,29.9,N/A,,Clear,250,2012-10-11 14:55:00
10:15 AM,56.3,29.8,36,30.01,10.0,WSW,20.7,29.9,N/A,,Clear,240,2012-10-11 15:15:00
10:35 AM,58.3,30.0,34,30.01,10.0,WSW,18.4,26.5,N/A,,Clear,250,2012-10-11 15:35:00
10:55 AM,59.2,28.9,32,30.02,10.0,WSW,18.4,27.6,N/A,,Clear,240,2012-10-11 15:55:00
11:15 AM,59.9,29.3,31,30.02,10.0,WSW,19.6,26.5,N/A,,Clear,240,2012-10-11 16:15:00
11:35 AM,61.9,29.3,29,30.02,10.0,WSW,16.1,23.0,N/A,,Clear,240,2012-10-11 16:35:00
11:55 AM,61.7,29.3,29,30.02,10.0,West,16.1,21.9,N/A,,Scattered Clouds,270,2012-10-11 16:55:00
12:15 PM,63.0,29.1,28,30.02,10.0,West,13.8,18.4,N/A,,Clear,270,2012-10-11 17:15:00
12:55 PM,63.1,29.5,28,30.03,10.0,NW,15.0,21.9,N/A,,Scattered Clouds,310,2012-10-11 17:55:00
1:15 PM,61.3,29.1,30,30.04,10.0,WNW,16.1,24.2,N/A,,Mostly Cloudy,290,2012-10-11 18:15:00
1:35 PM,59.4,31.1,34,30.03,10.0,NW,12.7,18.4,N/A,,Mostly Cloudy,320,2012-10-11 18:35:00
1:55 PM,56.1,34.3,44,30.05,10.0,NW,12.7,18.4,N/A,,Overcast,320,2012-10-11 18:55:00
2:15 PM,52.9,39.7,61,30.05,10.0,NW,11.5,-,N/A,,Overcast,320,2012-10-11 19:15:00
2:35 PM,54.3,39.2,57,30.06,10.0,West,12.7,-,N/A,,Scattered Clouds,280,2012-10-11 19:35:00
2:55 PM,55.4,36.9,50,30.06,10.0,West,11.5,-,N/A,,Mostly Cloudy,270,2012-10-11 19:55:00
3:15 PM,55.8,34.9,45,30.07,10.0,West,11.5,-,N/A,,Overcast,280,2012-10-11 20:15:00
3:55 PM,56.1,33.1,42,30.08,10.0,NW,10.4,-,N/A,,Mostly Cloudy,320,2012-10-11 20:55:00
4:15 PM,53.6,32.0,44,30.09,10.0,NNW,15.0,19.6,N/A,,Overcast,340,2012-10-11 21:15:00
4:35 PM,52.5,33.4,48,30.10,10.0,NNW,11.5,-,N/A,,Mostly Cloudy,340,2012-10-11 21:35:00
4:55 PM,52.2,32.7,48,30.11,10.0,NNW,11.5,-,N/A,,Overcast,340,2012-10-11 21:55:00
5:15 PM,51.3,33.1,50,30.13,10.0,NNW,9.2,-,N/A,,Overcast,340,2012-10-11 22:15:00
5:35 PM,50.9,31.6,48,30.13,10.0,North,11.5,-,N/A,,Overcast,360,2012-10-11 22:35:00
5:55 PM,50.0,31.3,49,30.14,10.0,North,11.5,-,N/A,,Overcast,350,2012-10-11 22:55:00
6:15 PM,49.6,32.0,51,30.15,10.0,North,11.5,-,N/A,,Overcast,350,2012-10-11 23:15:00
6:35 PM,49.3,30.4,48,30.16,10.0,NNW,10.4,-,N/A,,Overcast,340,2012-10-11 23:35:00
6:55 PM,49.1,28.8,45,30.17,10.0,North,8.1,-,N/A,,Overcast,350,2012-10-11 23:55:00
7:15 PM,48.6,29.7,48,30.18,10.0,NNW,5.8,-,N/A,,Overcast,340,2012-10-12 00:15:00
7:35 PM,48.2,30.0,49,30.19,10.0,NW,4.6,-,N/A,,Overcast,320,2012-10-12 00:35:00
7:55 PM,47.8,30.0,50,30.19,10.0,NW,4.6,-,N/A,,Overcast,320,2012-10-12 00:55:00
8:15 PM,47.7,29.7,50,30.20,10.0,NW,6.9,-,N/A,,Overcast,320,2012-10-12 01:15:00
8:35 PM,47.8,28.9,48,30.21,10.0,NW,6.9,-,N/A,,Overcast,310,2012-10-12 01:35:00
8:55 PM,47.7,28.9,48,30.21,10.0,NW,3.5,-,N/A,,Overcast,320,2012-10-12 01:55:00
9:15 PM,47.3,29.3,50,30.23,10.0,NW,4.6,-,N/A,,Overcast,320,2012-10-12 02:15:00
9:55 PM,47.5,18.3,31,30.25,10.0,North,17.3,23.0,N/A,,Mostly Cloudy,10,2012-10-12 02:55:00
10:15 PM,46.2,14.9,28,30.26,10.0,North,13.8,-,N/A,,Scattered Clouds,360,2012-10-12 03:15:00
10:55 PM,44.6,17.8,34,30.28,10.0,North,10.4,17.3,N/A,,Clear,360,2012-10-12 03:55:00
11:15 PM,43.9,18.5,36,30.30,10.0,North,9.2,-,N/A,,Clear,10,2012-10-12 04:15:00
11:35 PM,43.7,18.5,36,30.30,10.0,North,9.2,-,N/A,,Clear,10,2012-10-12 04:35:00
11:55 PM,42.8,19.2,39,30.31,10.0,North,13.8,-,N/A,,Clear,10,2012-10-12 04:55:00